sensor_id;sensor_type;location;lat;lon;timestamp;temperature;humidity
41882;DHT22;27562;47.524;12.404;2024-03-17T00:01:38;7.50;99.90
41882;DHT22;27562;47.524;12.404;2024-03-17T00:04:03;7.50;99.90
41882;DHT22;27562;47.524;12.404;2024-03-17T00:06:30;7.50;99.90
41882;DHT22;27562;47.524;12.404;2024-03-17T00:08:56;7.50;99.90
41882;DHT22;27562;47.524;12.404;2024-03-17T00:11:21;7.50;99.90
41882;DHT22;27562;47.524;12.404;2024-03-17T00:13:47;7.60;99.90
41882;DHT22;27562;47.524;12.404;2024-03-17T00:16:13;7.50;99.90
41882;DHT22;27562;47.524;12.404;2024-03-17T00:18:39;7.50;99.90
41882;DHT22;27562;47.524;12.404;2024-03-17T00:21:06;7.50;99.90
41882;DHT22;27562;47.524;12.404;2024-03-17T00:23:32;7.50;99.90
41882;DHT22;27562;47.524;12.404;2024-03-17T00:25:57;7.50;99.90
41882;DHT22;27562;47.524;12.404;2024-03-17T00:28:23;7.50;99.90
41882;DHT22;27562;47.524;12.404;2024-03-17T00:30:50;7.50;99.90
41882;DHT22;27562;47.524;12.404;2024-03-17T00:33:16;7.40;99.90
41882;DHT22;27562;47.524;12.404;2024-03-17T00:35:42;7.40;99.90
41882;DHT22;27562;47.524;12.404;2024-03-17T00:38:07;7.40;99.90
41882;DHT22;27562;47.524;12.404;2024-03-17T00:40:39;7.40;99.90
41882;DHT22;27562;47.524;12.404;2024-03-17T00:43:08;7.30;99.90
41882;DHT22;27562;47.524;12.404;2024-03-17T00:45:33;7.30;99.90
41882;DHT22;27562;47.524;12.404;2024-03-17T00:47:59;7.30;99.90
41882;DHT22;27562;47.524;12.404;2024-03-17T00:50:25;7.30;99.90
41882;DHT22;27562;47.524;12.404;2024-03-17T00:52:51;7.20;99.90
41882;DHT22;27562;47.524;12.404;2024-03-17T00:55:16;7.20;99.90
41882;DHT22;27562;47.524;12.404;2024-03-17T00:57:42;7.30;99.90
41882;DHT22;27562;47.524;12.404;2024-03-17T01:00:08;7.30;99.90
41882;DHT22;27562;47.524;12.404;2024-03-17T01:02:41;7.30;99.90
41882;DHT22;27562;47.524;12.404;2024-03-17T01:05:07;7.30;99.90
41882;DHT22;27562;47.524;12.404;2024-03-17T01:07:33;7.30;99.90
41882;DHT22;27562;47.524;12.404;2024-03-17T01:09:59;7.30;99.90
41882;DHT22;27562;47.524;12.404;2024-03-17T01:12:25;7.30;99.90
41882;DHT22;27562;47.524;12.404;2024-03-17T01:14:51;7.30;99.90
41882;DHT22;27562;47.524;12.404;2024-03-17T01:17:17;7.30;99.90
41882;DHT22;27562;47.524;12.404;2024-03-17T01:19:44;7.20;99.90
41882;DHT22;27562;47.524;12.404;2024-03-17T01:22:10;7.20;99.90
41882;DHT22;27562;47.524;12.404;2024-03-17T01:24:36;7.20;99.90
41882;DHT22;27562;47.524;12.404;2024-03-17T01:27:05;7.20;99.90
41882;DHT22;27562;47.524;12.404;2024-03-17T01:29:30;7.20;99.90
41882;DHT22;27562;47.524;12.404;2024-03-17T01:31:56;7.20;99.90
41882;DHT22;27562;47.524;12.404;2024-03-17T01:34:22;7.10;99.90
41882;DHT22;27562;47.524;12.404;2024-03-17T01:36:48;7.10;99.90
41882;DHT22;27562;47.524;12.404;2024-03-17T01:39:14;7.10;99.90
41882;DHT22;27562;47.524;12.404;2024-03-17T01:41:41;7.10;99.90
41882;DHT22;27562;47.524;12.404;2024-03-17T01:44:07;7.10;99.90
41882;DHT22;27562;47.524;12.404;2024-03-17T01:46:33;7.10;99.90
41882;DHT22;27562;47.524;12.404;2024-03-17T01:48:59;7.10;99.90
41882;DHT22;27562;47.524;12.404;2024-03-17T01:51:25;7.10;99.90
41882;DHT22;27562;47.524;12.404;2024-03-17T01:53:51;7.10;99.90
41882;DHT22;27562;47.524;12.404;2024-03-17T01:56:17;7.10;99.90
41882;DHT22;27562;47.524;12.404;2024-03-17T01:58:45;7.00;99.90
41882;DHT22;27562;47.524;12.404;2024-03-17T02:01:12;7.00;99.90
41882;DHT22;27562;47.524;12.404;2024-03-17T02:03:41;7.00;99.90
41882;DHT22;27562;47.524;12.404;2024-03-17T02:06:10;6.90;99.90
41882;DHT22;27562;47.524;12.404;2024-03-17T02:08:53;7.00;99.90
41882;DHT22;27562;47.524;12.404;2024-03-17T02:11:29;7.00;99.90
41882;DHT22;27562;47.524;12.404;2024-03-17T02:13:56;7.00;99.90
41882;DHT22;27562;47.524;12.404;2024-03-17T02:16:22;7.00;99.90
41882;DHT22;27562;47.524;12.404;2024-03-17T02:18:49;7.00;99.90
41882;DHT22;27562;47.524;12.404;2024-03-17T02:21:15;7.10;99.90
41882;DHT22;27562;47.524;12.404;2024-03-17T02:23:44;7.00;99.90
41882;DHT22;27562;47.524;12.404;2024-03-17T02:26:10;7.00;99.90
41882;DHT22;27562;47.524;12.404;2024-03-17T02:28:40;7.00;99.90
41882;DHT22;27562;47.524;12.404;2024-03-17T02:31:08;7.00;99.90
41882;DHT22;27562;47.524;12.404;2024-03-17T02:33:35;7.00;99.90
41882;DHT22;27562;47.524;12.404;2024-03-17T02:36:01;7.00;99.90
41882;DHT22;27562;47.524;12.404;2024-03-17T02:38:29;7.00;99.90
41882;DHT22;27562;47.524;12.404;2024-03-17T02:41:14;7.10;99.90
41882;DHT22;27562;47.524;12.404;2024-03-17T02:43:39;7.10;99.90
41882;DHT22;27562;47.524;12.404;2024-03-17T02:46:05;7.10;99.90
41882;DHT22;27562;47.524;12.404;2024-03-17T02:48:31;7.10;99.90
41882;DHT22;27562;47.524;12.404;2024-03-17T02:50:57;7.10;99.90
41882;DHT22;27562;47.524;12.404;2024-03-17T02:53:23;7.10;99.90
41882;DHT22;27562;47.524;12.404;2024-03-17T02:55:48;7.10;99.90
41882;DHT22;27562;47.524;12.404;2024-03-17T02:58:14;7.00;99.90
41882;DHT22;27562;47.524;12.404;2024-03-17T03:00:40;7.00;99.90
41882;DHT22;27562;47.524;12.404;2024-03-17T03:03:05;7.10;99.90
41882;DHT22;27562;47.524;12.404;2024-03-17T03:05:31;7.00;99.90
41882;DHT22;27562;47.524;12.404;2024-03-17T03:07:57;7.10;99.90
41882;DHT22;27562;47.524;12.404;2024-03-17T03:10:23;7.00;99.90
41882;DHT22;27562;47.524;12.404;2024-03-17T03:12:49;7.00;99.90
41882;DHT22;27562;47.524;12.404;2024-03-17T03:15:15;7.00;99.90
41882;DHT22;27562;47.524;12.404;2024-03-17T03:17:40;7.00;99.90
41882;DHT22;27562;47.524;12.404;2024-03-17T03:20:06;7.00;99.90
41882;DHT22;27562;47.524;12.404;2024-03-17T03:22:32;7.10;99.90
41882;DHT22;27562;47.524;12.404;2024-03-17T03:24:58;7.00;99.90
41882;DHT22;27562;47.524;12.404;2024-03-17T03:27:24;7.10;99.90
41882;DHT22;27562;47.524;12.404;2024-03-17T03:29:50;7.00;99.90
41882;DHT22;27562;47.524;12.404;2024-03-17T03:32:15;7.10;99.90
41882;DHT22;27562;47.524;12.404;2024-03-17T03:34:43;7.10;99.90
41882;DHT22;27562;47.524;12.404;2024-03-17T03:37:09;7.10;99.90
41882;DHT22;27562;47.524;12.404;2024-03-17T03:39:36;7.10;99.90
41882;DHT22;27562;47.524;12.404;2024-03-17T03:42:02;7.00;99.90
41882;DHT22;27562;47.524;12.404;2024-03-17T03:44:27;7.00;99.90
41882;DHT22;27562;47.524;12.404;2024-03-17T03:46:54;7.00;99.90
41882;DHT22;27562;47.524;12.404;2024-03-17T03:49:26;7.00;99.90
41882;DHT22;27562;47.524;12.404;2024-03-17T03:51:52;7.00;99.90
41882;DHT22;27562;47.524;12.404;2024-03-17T03:54:17;7.00;99.90
41882;DHT22;27562;47.524;12.404;2024-03-17T03:56:43;7.00;99.90
41882;DHT22;27562;47.524;12.404;2024-03-17T03:59:09;7.00;99.90
41882;DHT22;27562;47.524;12.404;2024-03-17T04:01:35;7.00;99.90
41882;DHT22;27562;47.524;12.404;2024-03-17T04:04:01;7.00;99.90
41882;DHT22;27562;47.524;12.404;2024-03-17T04:06:27;7.00;99.90
41882;DHT22;27562;47.524;12.404;2024-03-17T04:08:53;7.00;99.90
41882;DHT22;27562;47.524;12.404;2024-03-17T04:11:18;7.00;99.90
41882;DHT22;27562;47.524;12.404;2024-03-17T04:13:44;6.90;99.90
41882;DHT22;27562;47.524;12.404;2024-03-17T04:16:09;6.90;99.90
41882;DHT22;27562;47.524;12.404;2024-03-17T04:18:35;6.90;99.90
41882;DHT22;27562;47.524;12.404;2024-03-17T04:21:05;6.80;99.90
41882;DHT22;27562;47.524;12.404;2024-03-17T04:23:32;6.90;99.90
41882;DHT22;27562;47.524;12.404;2024-03-17T04:25:59;6.90;99.90
41882;DHT22;27562;47.524;12.404;2024-03-17T04:28:25;6.90;99.90
41882;DHT22;27562;47.524;12.404;2024-03-17T04:30:50;6.90;99.90
41882;DHT22;27562;47.524;12.404;2024-03-17T04:33:16;6.80;99.90
41882;DHT22;27562;47.524;12.404;2024-03-17T04:35:42;6.80;99.90
41882;DHT22;27562;47.524;12.404;2024-03-17T04:38:08;6.80;99.90
41882;DHT22;27562;47.524;12.404;2024-03-17T04:40:35;6.80;99.90
41882;DHT22;27562;47.524;12.404;2024-03-17T04:43:05;6.90;99.90
41882;DHT22;27562;47.524;12.404;2024-03-17T04:45:30;6.80;99.90
41882;DHT22;27562;47.524;12.404;2024-03-17T04:47:56;6.80;99.90
41882;DHT22;27562;47.524;12.404;2024-03-17T04:50:22;6.80;99.90
41882;DHT22;27562;47.524;12.404;2024-03-17T04:52:47;6.80;99.90
41882;DHT22;27562;47.524;12.404;2024-03-17T04:55:14;6.80;99.90
41882;DHT22;27562;47.524;12.404;2024-03-17T04:57:43;6.80;99.90
41882;DHT22;27562;47.524;12.404;2024-03-17T05:00:09;6.90;99.90
41882;DHT22;27562;47.524;12.404;2024-03-17T05:02:37;6.80;99.90
41882;DHT22;27562;47.524;12.404;2024-03-17T05:05:03;6.90;99.90
41882;DHT22;27562;47.524;12.404;2024-03-17T05:07:31;6.90;99.90
41882;DHT22;27562;47.524;12.404;2024-03-17T05:09:56;6.80;99.90
41882;DHT22;27562;47.524;12.404;2024-03-17T05:12:22;6.80;99.90
41882;DHT22;27562;47.524;12.404;2024-03-17T05:14:48;6.80;99.90
41882;DHT22;27562;47.524;12.404;2024-03-17T05:17:14;6.90;99.90
41882;DHT22;27562;47.524;12.404;2024-03-17T05:19:40;6.90;99.90
41882;DHT22;27562;47.524;12.404;2024-03-17T05:22:06;6.80;99.90
41882;DHT22;27562;47.524;12.404;2024-03-17T05:24:31;6.80;99.90
41882;DHT22;27562;47.524;12.404;2024-03-17T05:26:57;6.80;99.90
41882;DHT22;27562;47.524;12.404;2024-03-17T05:29:23;6.80;99.90
41882;DHT22;27562;47.524;12.404;2024-03-17T05:31:49;6.80;99.90
41882;DHT22;27562;47.524;12.404;2024-03-17T05:34:15;6.80;99.90
41882;DHT22;27562;47.524;12.404;2024-03-17T05:36:40;6.80;99.90
41882;DHT22;27562;47.524;12.404;2024-03-17T05:39:06;6.80;99.90
41882;DHT22;27562;47.524;12.404;2024-03-17T05:41:32;6.80;99.90
41882;DHT22;27562;47.524;12.404;2024-03-17T05:43:58;6.70;99.90
41882;DHT22;27562;47.524;12.404;2024-03-17T05:46:25;6.70;99.90
41882;DHT22;27562;47.524;12.404;2024-03-17T05:48:52;6.70;99.90
41882;DHT22;27562;47.524;12.404;2024-03-17T05:51:17;6.70;99.90
41882;DHT22;27562;47.524;12.404;2024-03-17T05:53:43;6.70;99.90
41882;DHT22;27562;47.524;12.404;2024-03-17T05:56:12;6.60;99.90
41882;DHT22;27562;47.524;12.404;2024-03-17T05:58:39;6.60;99.90
41882;DHT22;27562;47.524;12.404;2024-03-17T06:01:05;6.60;99.90
41882;DHT22;27562;47.524;12.404;2024-03-17T06:03:33;6.60;99.90
41882;DHT22;27562;47.524;12.404;2024-03-17T06:06:02;6.60;99.90
41882;DHT22;27562;47.524;12.404;2024-03-17T06:08:28;6.60;99.90
41882;DHT22;27562;47.524;12.404;2024-03-17T06:10:54;6.60;99.90
41882;DHT22;27562;47.524;12.404;2024-03-17T06:13:22;6.70;99.90
41882;DHT22;27562;47.524;12.404;2024-03-17T06:15:50;6.70;99.90
41882;DHT22;27562;47.524;12.404;2024-03-17T06:18:15;6.60;99.90
41882;DHT22;27562;47.524;12.404;2024-03-17T06:20:47;6.70;99.90
41882;DHT22;27562;47.524;12.404;2024-03-17T06:23:16;6.70;99.90
41882;DHT22;27562;47.524;12.404;2024-03-17T06:25:46;6.70;99.90
41882;DHT22;27562;47.524;12.404;2024-03-17T06:28:14;6.70;99.90
41882;DHT22;27562;47.524;12.404;2024-03-17T06:30:41;6.80;99.90
41882;DHT22;27562;47.524;12.404;2024-03-17T06:33:07;6.80;99.90
41882;DHT22;27562;47.524;12.404;2024-03-17T06:35:36;6.80;99.90
41882;DHT22;27562;47.524;12.404;2024-03-17T06:38:02;6.80;99.90
41882;DHT22;27562;47.524;12.404;2024-03-17T06:40:27;6.90;99.90
41882;DHT22;27562;47.524;12.404;2024-03-17T06:42:53;6.90;99.90
41882;DHT22;27562;47.524;12.404;2024-03-17T06:45:19;6.90;99.90
41882;DHT22;27562;47.524;12.404;2024-03-17T06:47:48;6.90;99.90
41882;DHT22;27562;47.524;12.404;2024-03-17T06:50:14;7.00;99.90
41882;DHT22;27562;47.524;12.404;2024-03-17T06:52:40;7.00;99.90
41882;DHT22;27562;47.524;12.404;2024-03-17T06:55:06;7.00;99.90
41882;DHT22;27562;47.524;12.404;2024-03-17T06:57:34;7.00;99.90
41882;DHT22;27562;47.524;12.404;2024-03-17T07:00:01;7.00;99.90
41882;DHT22;27562;47.524;12.404;2024-03-17T07:02:27;7.00;99.90
41882;DHT22;27562;47.524;12.404;2024-03-17T07:04:53;7.00;99.90
41882;DHT22;27562;47.524;12.404;2024-03-17T07:07:18;7.00;99.90
41882;DHT22;27562;47.524;12.404;2024-03-17T07:09:47;7.10;99.90
41882;DHT22;27562;47.524;12.404;2024-03-17T07:12:12;7.10;99.90
41882;DHT22;27562;47.524;12.404;2024-03-17T07:14:38;7.10;99.90
41882;DHT22;27562;47.524;12.404;2024-03-17T07:17:04;7.10;99.90
41882;DHT22;27562;47.524;12.404;2024-03-17T07:19:30;7.10;99.90
41882;DHT22;27562;47.524;12.404;2024-03-17T07:21:57;7.10;99.90
41882;DHT22;27562;47.524;12.404;2024-03-17T07:24:23;7.10;99.90
41882;DHT22;27562;47.524;12.404;2024-03-17T07:26:49;7.10;99.90
41882;DHT22;27562;47.524;12.404;2024-03-17T07:29:15;7.20;99.90
41882;DHT22;27562;47.524;12.404;2024-03-17T07:31:41;7.20;99.90
41882;DHT22;27562;47.524;12.404;2024-03-17T07:34:07;7.20;99.90
41882;DHT22;27562;47.524;12.404;2024-03-17T07:36:32;7.30;99.90
41882;DHT22;27562;47.524;12.404;2024-03-17T07:38:58;7.30;99.90
41882;DHT22;27562;47.524;12.404;2024-03-17T07:41:24;7.40;99.90
41882;DHT22;27562;47.524;12.404;2024-03-17T07:43:50;7.40;99.90
41882;DHT22;27562;47.524;12.404;2024-03-17T07:46:16;7.50;99.90
41882;DHT22;27562;47.524;12.404;2024-03-17T07:48:43;7.60;99.90
41882;DHT22;27562;47.524;12.404;2024-03-17T07:51:13;7.70;99.90
41882;DHT22;27562;47.524;12.404;2024-03-17T07:53:44;7.90;99.90
41882;DHT22;27562;47.524;12.404;2024-03-17T07:56:14;8.00;99.90
41882;DHT22;27562;47.524;12.404;2024-03-17T07:58:44;8.10;99.90
41882;DHT22;27562;47.524;12.404;2024-03-17T08:01:11;8.20;99.90
41882;DHT22;27562;47.524;12.404;2024-03-17T08:03:39;8.30;99.90
41882;DHT22;27562;47.524;12.404;2024-03-17T08:06:06;8.40;99.90
41882;DHT22;27562;47.524;12.404;2024-03-17T08:08:33;8.40;99.90
41882;DHT22;27562;47.524;12.404;2024-03-17T08:10:59;8.50;99.90
41882;DHT22;27562;47.524;12.404;2024-03-17T08:13:26;8.60;99.90
41882;DHT22;27562;47.524;12.404;2024-03-17T08:15:58;8.60;99.90
41882;DHT22;27562;47.524;12.404;2024-03-17T08:18:25;8.70;99.90
41882;DHT22;27562;47.524;12.404;2024-03-17T08:20:53;8.70;99.90
41882;DHT22;27562;47.524;12.404;2024-03-17T08:23:20;8.70;99.90
41882;DHT22;27562;47.524;12.404;2024-03-17T08:25:57;8.80;99.90
41882;DHT22;27562;47.524;12.404;2024-03-17T08:28:24;8.80;99.90
41882;DHT22;27562;47.524;12.404;2024-03-17T08:30:54;8.90;99.90
41882;DHT22;27562;47.524;12.404;2024-03-17T08:33:20;8.90;99.90
41882;DHT22;27562;47.524;12.404;2024-03-17T08:38:24;8.90;99.90
41882;DHT22;27562;47.524;12.404;2024-03-17T08:40:51;9.10;99.90
41882;DHT22;27562;47.524;12.404;2024-03-17T08:43:17;9.20;99.90
41882;DHT22;27562;47.524;12.404;2024-03-17T08:45:44;9.30;99.90
41882;DHT22;27562;47.524;12.404;2024-03-17T08:48:10;9.40;99.90
41882;DHT22;27562;47.524;12.404;2024-03-17T08:50:38;9.50;99.90
41882;DHT22;27562;47.524;12.404;2024-03-17T08:53:05;9.60;99.90
41882;DHT22;27562;47.524;12.404;2024-03-17T08:55:32;9.70;99.90
41882;DHT22;27562;47.524;12.404;2024-03-17T08:57:57;9.80;99.90
41882;DHT22;27562;47.524;12.404;2024-03-17T09:00:23;9.80;99.90
41882;DHT22;27562;47.524;12.404;2024-03-17T09:02:49;9.90;99.90
41882;DHT22;27562;47.524;12.404;2024-03-17T09:05:14;9.90;99.90
41882;DHT22;27562;47.524;12.404;2024-03-17T09:07:40;10.00;99.90
41882;DHT22;27562;47.524;12.404;2024-03-17T09:10:06;10.00;99.90
41882;DHT22;27562;47.524;12.404;2024-03-17T09:12:34;10.10;99.90
41882;DHT22;27562;47.524;12.404;2024-03-17T09:14:59;10.10;99.90
41882;DHT22;27562;47.524;12.404;2024-03-17T09:17:25;10.20;99.90
41882;DHT22;27562;47.524;12.404;2024-03-17T09:19:51;10.30;99.90
41882;DHT22;27562;47.524;12.404;2024-03-17T09:22:16;10.30;99.90
41882;DHT22;27562;47.524;12.404;2024-03-17T09:24:42;10.40;99.90
41882;DHT22;27562;47.524;12.404;2024-03-17T09:27:08;10.50;99.90
41882;DHT22;27562;47.524;12.404;2024-03-17T09:29:34;10.60;99.90
41882;DHT22;27562;47.524;12.404;2024-03-17T09:32:00;10.70;99.90
41882;DHT22;27562;47.524;12.404;2024-03-17T09:34:26;10.80;99.90
41882;DHT22;27562;47.524;12.404;2024-03-17T09:36:52;10.80;99.90
41882;DHT22;27562;47.524;12.404;2024-03-17T09:39:17;10.90;99.90
41882;DHT22;27562;47.524;12.404;2024-03-17T09:41:46;10.90;99.90
41882;DHT22;27562;47.524;12.404;2024-03-17T09:44:12;11.00;99.90
41882;DHT22;27562;47.524;12.404;2024-03-17T09:46:41;11.10;99.90
41882;DHT22;27562;47.524;12.404;2024-03-17T09:49:15;11.20;99.90
41882;DHT22;27562;47.524;12.404;2024-03-17T09:51:42;11.30;99.90
41882;DHT22;27562;47.524;12.404;2024-03-17T09:54:18;11.40;99.90
41882;DHT22;27562;47.524;12.404;2024-03-17T09:56:46;11.50;99.90
41882;DHT22;27562;47.524;12.404;2024-03-17T09:59:12;11.60;99.90
41882;DHT22;27562;47.524;12.404;2024-03-17T10:01:38;11.70;99.90
41882;DHT22;27562;47.524;12.404;2024-03-17T10:04:04;11.80;99.90
41882;DHT22;27562;47.524;12.404;2024-03-17T10:06:31;11.90;99.90
41882;DHT22;27562;47.524;12.404;2024-03-17T10:08:58;12.00;99.90
41882;DHT22;27562;47.524;12.404;2024-03-17T10:11:31;12.10;99.90
41882;DHT22;27562;47.524;12.404;2024-03-17T10:14:04;12.10;99.90
41882;DHT22;27562;47.524;12.404;2024-03-17T10:16:31;12.20;99.90
41882;DHT22;27562;47.524;12.404;2024-03-17T10:19:24;12.20;99.90
41882;DHT22;27562;47.524;12.404;2024-03-17T10:21:58;12.30;99.90
41882;DHT22;27562;47.524;12.404;2024-03-17T10:24:27;12.30;99.90
41882;DHT22;27562;47.524;12.404;2024-03-17T10:26:55;12.40;99.90
41882;DHT22;27562;47.524;12.404;2024-03-17T10:29:29;12.50;99.90
41882;DHT22;27562;47.524;12.404;2024-03-17T10:34:24;12.70;99.90
41882;DHT22;27562;47.524;12.404;2024-03-17T10:39:42;12.90;99.90
41882;DHT22;27562;47.524;12.404;2024-03-17T10:42:09;13.00;99.90
41882;DHT22;27562;47.524;12.404;2024-03-17T10:44:38;13.10;99.90
41882;DHT22;27562;47.524;12.404;2024-03-17T10:47:05;13.20;99.90
41882;DHT22;27562;47.524;12.404;2024-03-17T10:49:37;13.30;99.90
41882;DHT22;27562;47.524;12.404;2024-03-17T10:52:08;13.30;99.90
41882;DHT22;27562;47.524;12.404;2024-03-17T10:54:40;13.50;99.90
41882;DHT22;27562;47.524;12.404;2024-03-17T10:59:58;13.50;99.90
41882;DHT22;27562;47.524;12.404;2024-03-17T11:02:26;13.60;99.90
41882;DHT22;27562;47.524;12.404;2024-03-17T11:05:02;13.50;99.90
41882;DHT22;27562;47.524;12.404;2024-03-17T11:07:29;13.50;99.90
41882;DHT22;27562;47.524;12.404;2024-03-17T11:09:57;13.60;99.90
41882;DHT22;27562;47.524;12.404;2024-03-17T11:12:45;13.60;99.90
41882;DHT22;27562;47.524;12.404;2024-03-17T11:18:28;13.60;99.90
41882;DHT22;27562;47.524;12.404;2024-03-17T11:20:59;13.60;99.90
41882;DHT22;27562;47.524;12.404;2024-03-17T11:23:29;13.70;99.90
41882;DHT22;27562;47.524;12.404;2024-03-17T11:25:55;13.80;99.90
41882;DHT22;27562;47.524;12.404;2024-03-17T11:31:39;14.00;99.90
41882;DHT22;27562;47.524;12.404;2024-03-17T11:34:30;14.00;99.90
41882;DHT22;27562;47.524;12.404;2024-03-17T11:36:58;14.10;99.20
41882;DHT22;27562;47.524;12.404;2024-03-17T11:39:46;14.10;99.70
41882;DHT22;27562;47.524;12.404;2024-03-17T11:42:14;14.10;98.80
41882;DHT22;27562;47.524;12.404;2024-03-17T11:45:02;14.10;99.80
41882;DHT22;27562;47.524;12.404;2024-03-17T11:47:39;14.20;99.70
41882;DHT22;27562;47.524;12.404;2024-03-17T11:50:07;14.30;97.00
41882;DHT22;27562;47.524;12.404;2024-03-17T11:52:35;14.40;96.40
41882;DHT22;27562;47.524;12.404;2024-03-17T11:55:01;14.40;96.70
41882;DHT22;27562;47.524;12.404;2024-03-17T11:57:27;14.50;97.40
41882;DHT22;27562;47.524;12.404;2024-03-17T11:59:55;14.60;97.70
41882;DHT22;27562;47.524;12.404;2024-03-17T12:04:48;14.80;95.40
41882;DHT22;27562;47.524;12.404;2024-03-17T12:07:16;14.80;97.60
41882;DHT22;27562;47.524;12.404;2024-03-17T12:09:43;14.80;94.00
41882;DHT22;27562;47.524;12.404;2024-03-17T12:12:14;14.70;94.60
41882;DHT22;27562;47.524;12.404;2024-03-17T12:14:41;14.80;93.70
41882;DHT22;27562;47.524;12.404;2024-03-17T12:17:09;14.90;93.10
41882;DHT22;27562;47.524;12.404;2024-03-17T12:19:36;14.90;92.70
41882;DHT22;27562;47.524;12.404;2024-03-17T12:22:04;14.90;92.20
41882;DHT22;27562;47.524;12.404;2024-03-17T12:24:35;15.00;92.30
41882;DHT22;27562;47.524;12.404;2024-03-17T12:27:04;15.00;91.30
41882;DHT22;27562;47.524;12.404;2024-03-17T12:32:03;15.00;91.00
41882;DHT22;27562;47.524;12.404;2024-03-17T12:34:32;15.00;90.70
41882;DHT22;27562;47.524;12.404;2024-03-17T12:37:00;15.00;90.70
41882;DHT22;27562;47.524;12.404;2024-03-17T12:39:27;15.00;91.70
41882;DHT22;27562;47.524;12.404;2024-03-17T12:42:03;15.20;91.60
41882;DHT22;27562;47.524;12.404;2024-03-17T12:44:30;15.20;93.20
41882;DHT22;27562;47.524;12.404;2024-03-17T12:47:01;15.30;94.40
41882;DHT22;27562;47.524;12.404;2024-03-17T12:49:32;15.40;93.60
41882;DHT22;27562;47.524;12.404;2024-03-17T12:52:00;15.50;91.50
41882;DHT22;27562;47.524;12.404;2024-03-17T12:54:27;15.30;91.40
41882;DHT22;27562;47.524;12.404;2024-03-17T12:57:06;15.10;91.30
41882;DHT22;27562;47.524;12.404;2024-03-17T12:59:51;15.20;94.30
41882;DHT22;27562;47.524;12.404;2024-03-17T13:02:41;15.30;94.70
41882;DHT22;27562;47.524;12.404;2024-03-17T13:05:17;15.40;92.20
41882;DHT22;27562;47.524;12.404;2024-03-17T13:07:44;15.40;92.80
41882;DHT22;27562;47.524;12.404;2024-03-17T13:10:12;15.40;92.20
41882;DHT22;27562;47.524;12.404;2024-03-17T13:12:38;15.50;92.90
41882;DHT22;27562;47.524;12.404;2024-03-17T13:15:04;15.50;91.20
41882;DHT22;27562;47.524;12.404;2024-03-17T13:17:30;15.50;90.70
41882;DHT22;27562;47.524;12.404;2024-03-17T13:19:59;15.50;90.70
41882;DHT22;27562;47.524;12.404;2024-03-17T13:22:25;15.50;91.90
41882;DHT22;27562;47.524;12.404;2024-03-17T13:24:51;15.50;90.80
41882;DHT22;27562;47.524;12.404;2024-03-17T13:27:17;15.60;91.50
41882;DHT22;27562;47.524;12.404;2024-03-17T13:29:46;15.60;90.90
41882;DHT22;27562;47.524;12.404;2024-03-17T13:32:12;15.60;90.00
41882;DHT22;27562;47.524;12.404;2024-03-17T13:34:38;15.60;90.60
41882;DHT22;27562;47.524;12.404;2024-03-17T13:37:03;15.70;91.90
41882;DHT22;27562;47.524;12.404;2024-03-17T13:39:32;15.90;91.00
41882;DHT22;27562;47.524;12.404;2024-03-17T13:41:59;16.00;90.60
41882;DHT22;27562;47.524;12.404;2024-03-17T13:44:29;16.10;89.90
41882;DHT22;27562;47.524;12.404;2024-03-17T13:46:59;16.00;88.70
41882;DHT22;27562;47.524;12.404;2024-03-17T13:49:27;16.00;87.30
41882;DHT22;27562;47.524;12.404;2024-03-17T13:51:54;16.00;90.40
41882;DHT22;27562;47.524;12.404;2024-03-17T13:54:19;16.00;87.00
41882;DHT22;27562;47.524;12.404;2024-03-17T13:56:48;16.00;87.60
41882;DHT22;27562;47.524;12.404;2024-03-17T13:59:14;16.00;90.80
41882;DHT22;27562;47.524;12.404;2024-03-17T14:01:41;16.00;90.40
41882;DHT22;27562;47.524;12.404;2024-03-17T14:04:14;16.10;90.10
41882;DHT22;27562;47.524;12.404;2024-03-17T14:06:44;16.00;89.40
41882;DHT22;27562;47.524;12.404;2024-03-17T14:09:10;15.90;87.70
41882;DHT22;27562;47.524;12.404;2024-03-17T14:11:36;15.80;84.70
41882;DHT22;27562;47.524;12.404;2024-03-17T14:14:02;15.80;86.60
41882;DHT22;27562;47.524;12.404;2024-03-17T14:16:31;15.70;88.30
41882;DHT22;27562;47.524;12.404;2024-03-17T14:18:58;15.60;86.20
41882;DHT22;27562;47.524;12.404;2024-03-17T14:21:24;15.60;88.50
41882;DHT22;27562;47.524;12.404;2024-03-17T14:23:50;15.60;89.70
41882;DHT22;27562;47.524;12.404;2024-03-17T14:26:16;15.60;87.80
41882;DHT22;27562;47.524;12.404;2024-03-17T14:28:42;15.70;86.10
41882;DHT22;27562;47.524;12.404;2024-03-17T14:31:07;15.60;87.70
41882;DHT22;27562;47.524;12.404;2024-03-17T14:33:33;15.60;87.30
41882;DHT22;27562;47.524;12.404;2024-03-17T14:35:59;15.50;86.00
41882;DHT22;27562;47.524;12.404;2024-03-17T14:38:25;15.50;87.00
41882;DHT22;27562;47.524;12.404;2024-03-17T14:40:55;15.30;87.90
41882;DHT22;27562;47.524;12.404;2024-03-17T14:43:20;15.30;86.70
41882;DHT22;27562;47.524;12.404;2024-03-17T14:45:46;15.10;86.00
41882;DHT22;27562;47.524;12.404;2024-03-17T14:48:12;15.00;87.20
41882;DHT22;27562;47.524;12.404;2024-03-17T14:50:41;14.90;88.60
41882;DHT22;27562;47.524;12.404;2024-03-17T14:53:06;14.80;89.10
41882;DHT22;27562;47.524;12.404;2024-03-17T14:55:32;14.70;90.20
41882;DHT22;27562;47.524;12.404;2024-03-17T14:57:59;14.70;90.60
41882;DHT22;27562;47.524;12.404;2024-03-17T15:00:28;14.60;91.30
41882;DHT22;27562;47.524;12.404;2024-03-17T15:02:56;14.50;91.60
41882;DHT22;27562;47.524;12.404;2024-03-17T15:05:21;14.50;91.60
41882;DHT22;27562;47.524;12.404;2024-03-17T15:07:49;14.50;91.80
41882;DHT22;27562;47.524;12.404;2024-03-17T15:10:14;14.40;92.20
41882;DHT22;27562;47.524;12.404;2024-03-17T15:12:41;14.40;92.00
41882;DHT22;27562;47.524;12.404;2024-03-17T15:15:07;14.30;92.80
41882;DHT22;27562;47.524;12.404;2024-03-17T15:17:34;14.30;92.80
41882;DHT22;27562;47.524;12.404;2024-03-17T15:20:00;14.20;92.80
41882;DHT22;27562;47.524;12.404;2024-03-17T15:22:26;14.30;93.20
41882;DHT22;27562;47.524;12.404;2024-03-17T15:24:52;14.30;94.10
41882;DHT22;27562;47.524;12.404;2024-03-17T15:27:18;14.20;94.20
41882;DHT22;27562;47.524;12.404;2024-03-17T15:29:44;14.10;94.70
41882;DHT22;27562;47.524;12.404;2024-03-17T15:32:10;14.00;95.30
41882;DHT22;27562;47.524;12.404;2024-03-17T15:34:39;14.00;95.50
41882;DHT22;27562;47.524;12.404;2024-03-17T15:37:06;14.00;95.50
41882;DHT22;27562;47.524;12.404;2024-03-17T15:39:32;14.00;95.80
41882;DHT22;27562;47.524;12.404;2024-03-17T15:41:57;13.90;96.40
41882;DHT22;27562;47.524;12.404;2024-03-17T15:44:23;13.90;96.70
41882;DHT22;27562;47.524;12.404;2024-03-17T15:46:49;13.80;96.80
41882;DHT22;27562;47.524;12.404;2024-03-17T15:49:15;13.80;96.80